createdAt,value
2023-03-07T00:00:04.851Z,3.94
2023-03-07T00:01:04.874Z,4.13
2023-03-07T00:02:04.909Z,4.36
2023-03-07T00:03:04.972Z,3.81
2023-03-07T00:04:04.966Z,4.05
2023-03-07T00:05:04.964Z,4.41
2023-03-07T00:06:04.988Z,3.84
2023-03-07T00:07:05.021Z,4.10
2023-03-07T00:08:05.041Z,4.23
2023-03-07T00:09:05.076Z,4.00
2023-03-07T00:10:05.101Z,4.16
2023-03-07T00:11:05.149Z,3.96
2023-03-07T00:12:05.231Z,3.86
2023-03-07T00:13:05.170Z,4.47
2023-03-07T00:14:05.191Z,4.21
2023-03-07T00:15:05.227Z,3.90
2023-03-07T00:16:05.292Z,3.76
2023-03-07T00:17:05.299Z,4.24
2023-03-07T00:18:05.304Z,4.81
2023-03-07T00:19:05.315Z,3.72
2023-03-07T00:20:05.338Z,4.02
2023-03-07T00:21:05.367Z,4.23
2023-03-07T00:22:05.408Z,3.95
2023-03-07T00:23:05.439Z,4.65
2023-03-07T00:24:05.467Z,4.15
2023-03-07T00:25:05.485Z,4.04
2023-03-07T00:26:05.524Z,4.46
2023-03-07T00:27:05.550Z,4.11
2023-03-07T00:28:05.573Z,4.13
2023-03-07T00:29:05.602Z,4.28
2023-03-07T00:30:05.633Z,3.90
2023-03-07T00:31:05.695Z,4.04
2023-03-07T00:32:05.755Z,4.10
2023-03-07T00:33:05.717Z,3.58
2023-03-07T00:34:05.754Z,3.72
2023-03-07T00:35:05.844Z,4.37
2023-03-07T00:36:06.727Z,3.66
2023-03-07T00:37:05.833Z,3.69
2023-03-07T00:38:06.035Z,4.38
2023-03-07T00:39:05.884Z,4.36
2023-03-07T00:40:05.940Z,3.67
2023-03-07T00:41:05.949Z,4.30
2023-03-07T00:42:05.966Z,3.81
2023-03-07T00:43:05.978Z,3.64
2023-03-07T00:44:06.722Z,3.77
2023-03-07T00:45:06.044Z,4.07
2023-03-07T00:46:06.184Z,3.63
2023-03-07T00:47:06.109Z,3.74
2023-03-07T00:48:06.124Z,3.96
2023-03-07T00:49:06.151Z,4.44
2023-03-07T00:50:06.168Z,3.69
2023-03-07T00:51:06.194Z,4.44
2023-03-07T00:52:06.260Z,3.96
2023-03-07T00:53:06.244Z,4.63
2023-03-07T00:54:06.274Z,3.82
2023-03-07T00:55:06.297Z,4.00
2023-03-07T00:56:06.321Z,4.23
2023-03-07T00:57:06.345Z,4.24
2023-03-07T00:58:06.365Z,4.54
2023-03-07T00:59:06.410Z,4.17
2023-03-07T01:00:06.426Z,4.01
2023-03-07T01:01:06.528Z,3.67
2023-03-07T01:02:06.477Z,4.31
2023-03-07T01:03:06.496Z,4.13
2023-03-07T01:04:06.555Z,4.40
2023-03-07T01:05:06.556Z,3.83
2023-03-07T01:06:06.577Z,4.05
2023-03-07T01:07:06.671Z,3.91
2023-03-07T01:08:06.628Z,4.16
2023-03-07T01:09:06.656Z,4.15
2023-03-07T01:10:06.733Z,4.27
2023-03-07T01:11:06.696Z,4.37
2023-03-07T01:12:06.734Z,3.89
2023-03-07T01:13:06.750Z,4.17
2023-03-07T01:14:06.773Z,4.51
2023-03-07T01:15:06.801Z,4.13
2023-03-07T01:16:06.866Z,4.64
2023-03-07T01:17:06.901Z,3.95
2023-03-07T01:18:06.871Z,4.09
2023-03-07T01:19:06.902Z,3.78
2023-03-07T01:20:06.924Z,4.27
2023-03-07T01:21:06.946Z,4.16
2023-03-07T01:22:06.973Z,4.08
2023-03-07T01:23:07.001Z,4.08
2023-03-07T01:24:07.021Z,4.18
2023-03-07T01:25:07.059Z,4.43
2023-03-07T01:26:07.085Z,4.32
2023-03-07T01:27:07.122Z,3.96
2023-03-07T01:28:07.143Z,4.17
2023-03-07T01:29:07.170Z,4.33
2023-03-07T01:30:07.220Z,4.15
2023-03-07T01:31:07.315Z,3.70
2023-03-07T01:32:07.374Z,4.10
2023-03-07T01:33:07.281Z,4.26
2023-03-07T01:34:07.324Z,4.03
2023-03-07T01:35:07.332Z,3.95
2023-03-07T01:36:07.465Z,4.18
2023-03-07T01:37:07.387Z,3.73
2023-03-07T01:38:07.435Z,4.16
2023-03-07T01:39:07.453Z,3.91
2023-03-07T01:40:07.468Z,4.36
2023-03-07T01:41:07.490Z,3.65
2023-03-07T01:42:07.517Z,4.12
2023-03-07T01:43:07.555Z,4.56
2023-03-07T01:44:07.565Z,3.84
2023-03-07T01:45:07.600Z,4.13
2023-03-07T01:46:07.693Z,4.10
2023-03-07T03:59:11.332Z,4.27
2023-03-07T04:00:11.413Z,3.55
2023-03-07T04:01:11.383Z,4.14
2023-03-07T04:02:11.480Z,4.12
2023-03-07T04:03:11.527Z,4.19
2023-03-07T04:04:11.452Z,3.57
2023-03-07T04:05:11.472Z,4.11
2023-03-07T04:06:11.504Z,4.17
2023-03-07T04:09:11.578Z,3.72
2023-03-07T04:10:11.617Z,3.89
2023-03-07T04:11:11.627Z,4.38
2023-03-07T04:12:11.646Z,3.91
2023-03-07T04:13:11.664Z,4.35
2023-03-07T04:14:11.674Z,3.57
2023-03-07T04:15:11.700Z,4.34
2023-03-07T04:16:11.764Z,3.72
2023-03-07T04:17:11.789Z,4.11
2023-03-07T04:18:11.764Z,3.78
2023-03-07T04:19:11.761Z,4.35
2023-03-07T04:20:11.782Z,4.36
2023-03-07T04:21:12.780Z,3.90
2023-03-07T04:22:11.835Z,3.74
2023-03-07T04:23:11.854Z,3.82
2023-03-07T04:24:11.839Z,3.79
2023-03-07T04:25:11.859Z,3.75
2023-03-07T04:26:11.901Z,3.94
2023-03-07T04:27:11.852Z,3.68
2023-03-07T04:28:11.856Z,4.81
2023-03-07T04:29:11.873Z,3.87
2023-03-07T04:30:11.868Z,3.72
2023-03-07T04:31:11.871Z,3.78
2023-03-07T04:32:11.893Z,4.20
2023-03-07T04:33:11.875Z,3.78
2023-03-07T04:34:11.884Z,3.71
2023-03-07T04:35:11.920Z,4.61
2023-03-07T04:36:11.907Z,4.25
2023-03-07T04:37:11.899Z,4.03
2023-03-07T04:38:11.925Z,4.40
2023-03-07T04:39:11.912Z,3.88
2023-03-07T04:40:11.912Z,4.35
2023-03-07T04:41:11.905Z,3.89
2023-03-07T04:42:11.927Z,4.47
2023-03-07T04:43:11.921Z,3.87
2023-03-07T04:44:11.916Z,3.97
2023-03-07T04:45:11.938Z,4.17
2023-03-07T04:46:11.958Z,4.30
2023-03-07T04:47:11.933Z,4.31
2023-03-07T04:48:11.942Z,3.81
2023-03-07T04:49:11.940Z,4.05
2023-03-07T04:50:11.955Z,4.25
2023-03-07T04:52:11.950Z,3.99
2023-03-07T04:53:11.962Z,3.77
2023-03-07T04:54:11.964Z,4.59
2023-03-07T04:55:11.959Z,4.12
2023-03-07T04:56:14.793Z,4.02
2023-03-07T04:57:11.956Z,3.89
2023-03-07T04:58:11.947Z,4.37
2023-03-07T04:59:11.944Z,4.31
2023-03-07T05:11:11.851Z,4.47
2023-03-07T05:12:11.844Z,4.50
2023-03-07T05:13:11.840Z,3.89
2023-03-07T05:14:11.857Z,4.00
2023-03-07T05:15:11.837Z,4.15
2023-03-07T05:16:11.848Z,4.24
2023-03-07T05:27:11.751Z,4.33
2023-03-07T05:28:11.745Z,4.12
2023-03-07T05:29:11.811Z,4.45
2023-03-07T05:30:11.751Z,4.21
2023-03-07T05:31:11.812Z,4.62
2023-03-07T05:32:11.751Z,4.14
2023-03-07T05:33:11.721Z,4.10
2023-03-07T05:34:11.714Z,3.94
2023-03-07T05:35:11.702Z,3.71
2023-03-07T05:36:11.761Z,4.07
2023-03-07T05:37:11.701Z,4.60
2023-03-07T05:38:11.686Z,4.40
2023-03-07T05:39:11.679Z,3.90
2023-03-07T05:40:12.325Z,4.01
2023-03-07T05:41:11.669Z,4.02
2023-03-07T05:42:11.649Z,3.66
2023-03-07T05:43:11.649Z,4.32
2023-03-07T05:44:11.646Z,3.52
2023-03-07T05:45:11.735Z,4.32
2023-03-07T05:46:11.850Z,4.24
2023-03-07T05:47:11.620Z,4.35
2023-03-07T05:48:11.615Z,4.40
2023-03-07T05:49:11.615Z,4.83
2023-03-07T05:50:11.605Z,4.21
2023-03-07T05:51:11.602Z,4.18
2023-03-07T05:52:11.596Z,4.03
2023-03-07T05:53:11.642Z,4.64
2023-03-07T05:54:11.578Z,4.57
2023-03-07T05:55:11.580Z,3.80
2023-03-07T05:56:11.570Z,4.37
2023-03-07T05:57:11.563Z,4.34
2023-03-07T05:58:11.559Z,3.89
2023-03-07T05:59:11.547Z,4.69
2023-03-07T06:00:11.546Z,4.23
2023-03-07T06:01:11.537Z,4.01
2023-03-07T06:02:11.519Z,4.48
2023-03-07T06:03:11.515Z,4.58
2023-03-07T06:04:11.511Z,4.43
2023-03-07T06:07:11.506Z,4.90
2023-03-07T06:09:11.471Z,4.49
2023-03-07T06:10:11.471Z,4.30
2023-03-07T06:11:11.463Z,4.23
2023-03-07T06:12:11.454Z,3.83
2023-03-07T06:13:11.522Z,4.34
2023-03-07T06:14:11.437Z,3.99
2023-03-07T06:15:11.434Z,4.22
2023-03-07T06:16:11.507Z,4.17
2023-03-07T06:17:11.414Z,4.30
2023-03-07T06:18:11.406Z,4.43
2023-03-07T06:19:11.406Z,4.53
2023-03-07T06:20:11.399Z,4.55
2023-03-07T06:21:11.389Z,3.90
2023-03-07T06:22:11.382Z,4.78
2023-03-07T06:23:13.285Z,4.09
2023-03-07T06:24:11.370Z,4.78
2023-03-07T06:25:11.371Z,4.70
2023-03-07T06:26:11.357Z,4.23
2023-03-07T06:27:11.363Z,4.14
2023-03-07T06:28:11.333Z,4.45
2023-03-07T06:29:11.340Z,4.14
2023-03-07T06:30:11.324Z,4.73
2023-03-07T06:31:11.359Z,5.58
2023-03-07T06:36:12.756Z,4.56
2023-03-07T06:43:11.406Z,5.29
2023-03-07T06:44:11.339Z,6.00
2023-03-07T06:45:11.354Z,5.95
2023-03-07T06:46:11.434Z,5.42
2023-03-07T06:47:11.397Z,4.66
2023-03-07T06:48:12.343Z,5.66
2023-03-07T06:49:11.459Z,6.23
2023-03-07T06:50:11.465Z,6.38
2023-03-07T06:51:11.493Z,5.49
2023-03-07T06:52:11.499Z,5.68
2023-03-07T06:53:11.517Z,5.51
2023-03-07T06:54:12.346Z,5.20
2023-03-07T06:55:11.577Z,5.66
2023-03-07T06:56:11.597Z,5.74
2023-03-07T06:57:11.874Z,5.33
2023-03-07T06:58:11.647Z,5.74
2023-03-07T06:59:11.667Z,5.43
2023-03-07T07:00:11.702Z,5.37
2023-03-07T07:01:11.721Z,4.68
2023-03-07T07:02:11.838Z,5.05
2023-03-07T07:03:12.000Z,5.50
2023-03-07T07:04:12.348Z,4.69
2023-03-07T07:05:11.768Z,5.32
2023-03-07T07:06:11.812Z,5.33
2023-03-07T07:07:11.785Z,5.35
2023-03-07T07:08:11.789Z,4.83
2023-03-07T07:09:11.807Z,5.85
2023-03-07T07:10:11.917Z,5.04
2023-03-07T07:11:11.942Z,4.95
2023-03-07T07:12:11.952Z,5.49
2023-03-07T07:13:11.953Z,5.08
2023-03-07T07:14:11.968Z,6.36
2023-03-07T07:15:11.979Z,5.93
2023-03-07T07:16:12.055Z,5.58
2023-03-07T07:17:12.044Z,5.22
2023-03-07T07:18:12.050Z,5.05
2023-03-07T07:19:12.073Z,5.29
2023-03-07T07:20:12.143Z,5.28
2023-03-07T07:26:12.140Z,5.50
2023-03-07T07:28:12.118Z,6.16
2023-03-07T07:46:12.805Z,6.64
2023-03-07T07:47:12.250Z,6.37
2023-03-07T07:48:12.257Z,6.82
2023-03-07T07:49:12.231Z,5.81
2023-03-07T07:50:12.225Z,6.35
2023-03-07T07:51:12.222Z,5.64
2023-03-07T07:52:12.218Z,6.13
2023-03-07T07:53:12.201Z,6.06
2023-03-07T07:54:12.199Z,6.23
2023-03-07T07:55:12.191Z,5.84
2023-03-07T07:56:12.188Z,5.73
2023-03-07T07:57:12.209Z,6.14
2023-03-07T07:58:12.263Z,6.01
2023-03-07T07:59:12.325Z,6.21
2023-03-07T08:00:12.336Z,6.33
2023-03-07T08:01:12.356Z,6.17
2023-03-07T08:02:12.405Z,5.83
2023-03-07T08:03:12.416Z,5.80
2023-03-07T08:04:12.457Z,6.07
2023-03-07T08:05:12.479Z,5.34
2023-03-07T08:06:12.490Z,5.99
2023-03-07T08:07:12.507Z,5.99
2023-03-07T08:08:12.557Z,6.34
2023-03-07T08:09:12.605Z,6.14
2023-03-07T08:10:12.651Z,6.01
2023-03-07T08:11:12.700Z,6.63
2023-03-07T08:12:12.714Z,6.15
2023-03-07T08:13:12.738Z,5.02
2023-03-07T08:14:12.761Z,5.82
2023-03-07T08:15:12.782Z,6.66
2023-03-07T08:16:12.853Z,5.89
2023-03-07T08:17:12.825Z,6.13
2023-03-07T08:18:12.844Z,5.74
2023-03-07T08:19:12.871Z,5.79
2023-03-07T08:20:12.891Z,5.21
2023-03-07T08:21:12.914Z,5.83
2023-03-07T08:22:12.951Z,5.95
2023-03-07T08:23:12.932Z,5.29
2023-03-07T08:24:12.935Z,11.80
2023-03-07T08:25:12.987Z,14.32
2023-03-07T08:26:13.017Z,15.00
2023-03-07T08:27:13.077Z,15.72
2023-03-07T08:28:13.097Z,14.64
2023-03-07T08:29:13.104Z,14.30
2023-03-07T08:30:13.251Z,12.64
2023-03-07T08:31:13.271Z,12.84
2023-03-07T08:32:13.267Z,12.26
2023-03-07T08:33:13.246Z,12.27
2023-03-07T08:34:13.294Z,11.68
2023-03-07T08:35:13.340Z,11.52
2023-03-07T08:36:13.411Z,11.28
2023-03-07T08:37:13.366Z,11.17
2023-03-07T08:38:13.376Z,11.03
2023-03-07T08:39:13.409Z,10.78
2023-03-07T08:40:13.485Z,10.52
2023-03-07T08:41:13.514Z,10.09
2023-03-07T08:42:13.581Z,10.83
2023-03-07T08:43:13.582Z,10.00
2023-03-07T08:44:13.573Z,9.47
2023-03-07T08:45:13.566Z,9.84
2023-03-07T08:46:13.664Z,9.36
2023-03-07T08:47:13.660Z,10.24
2023-03-07T08:48:13.763Z,9.97
2023-03-07T08:49:13.842Z,9.79
2023-03-07T08:50:14.812Z,9.33
2023-03-07T08:51:13.951Z,12.45
2023-03-07T08:52:13.957Z,14.71
2023-03-07T08:53:13.986Z,14.25
2023-03-07T08:54:14.129Z,16.83
2023-03-07T08:55:14.061Z,16.06
2023-03-07T08:56:14.094Z,15.63
2023-03-07T08:57:14.140Z,14.87
2023-03-07T08:58:14.161Z,14.17
2023-03-07T08:59:14.227Z,14.56
2023-03-07T09:00:14.253Z,14.28
2023-03-07T09:01:14.353Z,12.54
2023-03-07T09:02:14.498Z,13.09
2023-03-07T09:03:14.475Z,13.01
2023-03-07T09:04:14.521Z,13.92
2023-03-07T09:05:14.562Z,13.09
2023-03-07T09:06:14.595Z,13.11
2023-03-07T09:07:14.604Z,12.59
2023-03-07T09:08:14.628Z,12.85
2023-03-07T09:09:14.659Z,11.49
2023-03-07T09:10:14.684Z,11.06
2023-03-07T09:11:14.702Z,11.67
2023-03-07T09:12:14.969Z,11.45
2023-03-07T09:13:15.958Z,12.02
2023-03-07T09:14:14.817Z,13.10
2023-03-07T09:15:14.864Z,13.51
2023-03-07T09:16:14.921Z,12.93
2023-03-07T09:17:14.901Z,12.18
2023-03-07T09:18:14.928Z,11.58
2023-03-07T09:19:14.955Z,11.41
2023-03-07T09:20:14.997Z,12.41
2023-03-07T09:21:15.041Z,12.15
2023-03-07T09:22:15.073Z,12.18
2023-03-07T09:24:15.084Z,13.00
2023-03-07T09:25:15.106Z,12.50
2023-03-07T09:26:15.134Z,12.04
2023-03-07T09:27:15.170Z,11.92
2023-03-07T09:28:15.217Z,12.69
2023-03-07T09:29:15.350Z,11.91
2023-03-07T09:30:15.282Z,11.59
2023-03-07T09:31:15.344Z,10.34
2023-03-07T09:32:15.433Z,10.82
2023-03-07T09:33:15.363Z,9.42
2023-03-07T09:34:15.371Z,9.76
2023-03-07T09:35:15.361Z,9.64
2023-03-07T09:36:15.376Z,9.91
2023-03-07T09:37:15.387Z,9.36
2023-03-07T09:38:15.436Z,8.77
2023-03-07T09:39:15.510Z,9.34
2023-03-07T09:40:15.548Z,8.96
2023-03-07T13:42:21.401Z,5.11
2023-03-07T13:43:21.506Z,4.80
2023-03-07T14:05:22.750Z,4.56
2023-03-07T14:12:23.102Z,4.59
2023-03-07T19:47:31.729Z,4.11
2023-03-07T19:55:31.644Z,4.17
2023-03-07T20:10:31.335Z,4.51
2023-03-07T20:11:32.075Z,4.46
2023-03-07T20:12:31.367Z,3.94
2023-03-07T20:13:31.400Z,3.79
2023-03-07T20:14:31.442Z,4.04
2023-03-07T20:16:31.454Z,4.00
2023-03-07T20:17:31.478Z,4.42
2023-03-07T20:18:31.500Z,4.03
2023-03-07T20:19:31.516Z,3.97
2023-03-07T20:20:31.555Z,4.18
2023-03-07T20:21:31.568Z,4.29
2023-03-07T20:22:31.584Z,4.12
2023-03-07T20:23:31.629Z,4.19
2023-03-07T20:24:31.653Z,4.53
2023-03-07T20:25:31.739Z,3.93
2023-03-07T20:26:31.824Z,4.23
2023-03-07T20:27:31.734Z,4.05
2023-03-07T20:28:31.763Z,4.17
2023-03-07T20:29:31.793Z,3.86
2023-03-07T20:30:31.828Z,3.41
2023-03-07T20:31:31.857Z,3.92
2023-03-07T20:32:31.893Z,3.83
2023-03-07T20:33:31.885Z,4.43
2023-03-07T20:34:31.930Z,4.52
2023-03-07T20:35:32.000Z,4.40
2023-03-07T20:36:31.968Z,3.80
2023-03-07T20:37:32.020Z,3.90
2023-03-07T20:38:32.032Z,3.96
2023-03-07T20:39:32.052Z,4.08
2023-03-07T20:40:32.147Z,4.26
2023-03-07T20:41:32.132Z,4.64
2023-03-07T20:42:32.119Z,4.50
2023-03-07T20:43:32.184Z,3.99
2023-03-07T20:44:32.204Z,3.78
2023-03-07T20:45:32.208Z,4.60
2023-03-07T20:46:32.274Z,3.73
2023-03-07T20:47:32.281Z,4.01
2023-03-07T20:48:32.298Z,4.41
2023-03-07T20:49:32.329Z,4.05
2023-03-07T20:50:32.343Z,4.28
2023-03-07T20:51:32.377Z,4.21
2023-03-07T20:52:32.405Z,4.30
2023-03-07T20:53:32.419Z,4.42
2023-03-07T20:54:32.452Z,4.51
2023-03-07T20:55:32.474Z,4.22
2023-03-07T20:56:32.513Z,4.43
2023-03-07T20:57:32.536Z,4.61
2023-03-07T20:58:32.557Z,4.23
2023-03-07T20:59:32.608Z,3.81
2023-03-07T21:00:32.607Z,4.43
2023-03-07T21:01:32.675Z,4.37
2023-03-07T21:02:32.662Z,4.54
2023-03-07T21:03:32.729Z,4.23
2023-03-07T21:04:32.721Z,3.95
2023-03-07T21:05:32.756Z,3.53
2023-03-07T21:06:32.838Z,3.91
2023-03-07T21:07:32.805Z,4.13
2023-03-07T21:08:32.885Z,4.02
2023-03-07T21:09:32.876Z,4.35
2023-03-07T21:10:32.874Z,4.17
2023-03-07T21:11:32.896Z,3.49
2023-03-07T21:12:32.927Z,3.83
2023-03-07T21:13:32.952Z,4.05
2023-03-07T21:14:32.979Z,4.15
2023-03-07T21:15:32.995Z,4.14
2023-03-07T21:16:33.136Z,3.79
2023-03-07T21:17:33.053Z,3.99
2023-03-07T21:18:33.079Z,4.09
2023-03-07T21:19:33.107Z,3.77
2023-03-07T21:20:33.136Z,4.15
2023-03-07T21:21:33.164Z,4.22
2023-03-07T21:22:33.257Z,4.21
2023-03-07T21:23:33.266Z,4.20
2023-03-07T21:24:33.229Z,4.44
2023-03-07T21:25:33.254Z,4.05
2023-03-07T21:26:33.344Z,3.85
2023-03-07T21:27:33.314Z,4.05
2023-03-07T21:28:33.330Z,3.72
